createdAt,value
2023-05-09T00:00:46.103Z,34.28
2023-05-09T00:03:15.485Z,32.28
2023-05-09T00:05:42.179Z,35.10
2023-05-09T00:08:08.991Z,32.57
2023-05-09T00:10:35.717Z,32.08
2023-05-09T00:13:02.315Z,29.63
2023-05-09T00:15:28.893Z,28.95
2023-05-09T00:17:55.396Z,34.88
2023-05-09T00:20:21.922Z,27.63
2023-05-09T00:22:48.457Z,30.80
2023-05-09T00:25:15.051Z,30.55
2023-05-09T00:27:41.808Z,32.78
2023-05-09T00:30:08.759Z,32.08
2023-05-09T00:32:35.742Z,34.63
2023-05-09T00:35:02.499Z,34.17
2023-05-09T00:37:30.632Z,35.63
2023-05-09T00:39:57.113Z,38.88
2023-05-09T00:42:23.609Z,30.58
2023-05-09T00:44:50.055Z,30.07
2023-05-09T00:47:16.575Z,31.33
2023-05-09T00:49:43.105Z,32.63
2023-05-09T00:52:09.691Z,34.58
2023-05-09T00:54:37.531Z,35.60
2023-05-09T00:57:04.261Z,30.10
2023-05-09T00:59:31.195Z,30.08
2023-05-09T01:01:57.655Z,29.88
2023-05-09T01:04:24.772Z,33.20
2023-05-09T01:07:03.346Z,38.47
2023-05-09T01:09:56.011Z,37.30
2023-05-09T01:12:42.453Z,32.95
2023-05-09T01:15:36.638Z,31.35
2023-05-09T01:18:17.360Z,34.95
2023-05-09T01:20:47.503Z,32.10
2023-05-09T01:23:30.067Z,33.07
2023-05-09T01:26:04.515Z,39.45
2023-05-09T01:29:01.610Z,33.88
2023-05-09T01:31:28.806Z,31.60
2023-05-09T01:33:59.824Z,25.58
2023-05-09T01:36:30.060Z,28.93
2023-05-09T01:38:58.215Z,29.65
2023-05-09T01:41:25.952Z,30.83
2023-05-09T01:43:53.860Z,34.55
2023-05-09T01:46:22.646Z,34.70
2023-05-09T01:48:50.688Z,30.10
2023-05-09T01:51:17.635Z,32.85
2023-05-09T01:53:46.578Z,31.85
2023-05-09T01:56:13.417Z,36.83
2023-05-09T01:58:41.410Z,36.95
2023-05-09T02:01:09.924Z,38.53
2023-05-09T02:03:38.967Z,38.58
2023-05-09T02:06:06.636Z,34.17
2023-05-09T02:08:33.462Z,31.10
2023-05-09T02:11:00.142Z,36.00
2023-05-09T02:13:28.028Z,40.63
2023-05-09T02:15:55.352Z,30.42
2023-05-09T02:18:21.903Z,40.78
2023-05-09T02:20:48.618Z,33.05
2023-05-09T02:23:15.629Z,34.88
2023-05-09T02:25:42.218Z,30.83
2023-05-09T02:28:10.512Z,32.20
2023-05-09T02:30:42.839Z,30.67
2023-05-09T02:33:12.447Z,36.42
2023-05-09T02:35:42.447Z,32.38
2023-05-09T02:38:09.153Z,31.90
2023-05-09T02:40:36.263Z,33.13
2023-05-09T02:43:02.889Z,34.70
2023-05-09T02:45:29.669Z,35.67
2023-05-09T02:47:56.423Z,39.53
2023-05-09T02:50:23.109Z,33.60
2023-05-09T02:52:49.532Z,34.47
2023-05-09T02:55:16.331Z,37.60
2023-05-09T02:57:43.112Z,37.92
2023-05-09T03:00:10.185Z,34.95
2023-05-09T03:02:37.397Z,39.13
2023-05-09T03:05:04.432Z,29.42
2023-05-09T03:07:30.982Z,32.65
2023-05-09T03:09:57.539Z,34.70
2023-05-09T03:12:24.050Z,33.58
2023-05-09T03:14:50.518Z,30.70
2023-05-09T03:17:21.425Z,34.60
2023-05-09T03:19:49.475Z,30.85
2023-05-09T03:22:16.227Z,42.63
2023-05-09T03:24:42.746Z,38.45
2023-05-09T03:27:09.332Z,37.03
2023-05-09T03:29:35.874Z,32.35
2023-05-09T03:32:02.408Z,37.80
2023-05-09T03:34:28.848Z,39.22
2023-05-09T03:36:55.453Z,36.35
2023-05-09T03:39:21.949Z,39.03
2023-05-09T03:41:49.186Z,40.75
2023-05-09T03:44:15.966Z,31.45
2023-05-09T03:46:42.512Z,38.17
2023-05-09T03:49:08.975Z,29.88
2023-05-09T03:51:35.504Z,38.27
2023-05-09T03:54:02.186Z,35.22
2023-05-09T03:56:28.630Z,30.85
2023-05-09T03:58:55.171Z,33.28
2023-05-09T04:01:21.740Z,35.25
2023-05-09T04:03:48.294Z,33.87
2023-05-09T04:06:15.618Z,32.47
2023-05-09T04:08:42.471Z,35.17
2023-05-09T04:11:08.919Z,27.80
2023-05-09T04:13:35.360Z,29.05
2023-05-09T04:16:01.907Z,33.83
2023-05-09T04:18:28.694Z,29.88
2023-05-09T04:20:55.123Z,31.75
2023-05-09T04:23:21.610Z,33.13
2023-05-09T04:25:50.501Z,32.67
2023-05-09T04:28:17.071Z,28.00
2023-05-09T04:30:43.564Z,28.20
2023-05-09T04:33:10.008Z,33.95
2023-05-09T04:35:36.633Z,34.78
2023-05-09T04:38:04.793Z,38.00
2023-05-09T04:40:31.582Z,32.40
2023-05-09T04:42:59.097Z,29.50
2023-05-09T04:45:26.047Z,29.00
2023-05-09T04:47:52.544Z,29.50
2023-05-09T04:50:19.078Z,32.13
2023-05-09T04:52:46.255Z,28.20
2023-05-09T04:55:12.915Z,26.38
2023-05-09T04:57:39.860Z,27.95
2023-05-09T05:00:08.198Z,30.17
2023-05-09T05:02:34.737Z,27.23
2023-05-09T05:05:10.964Z,25.07
2023-05-09T05:07:39.861Z,26.10
2023-05-09T05:10:06.822Z,27.00
2023-05-09T05:12:33.373Z,24.85
2023-05-09T05:14:59.812Z,25.17
2023-05-09T05:17:29.399Z,26.40
2023-05-09T05:19:56.158Z,23.92
2023-05-09T05:22:23.081Z,22.45
2023-05-09T05:24:49.875Z,23.58
2023-05-09T05:27:16.378Z,21.38
2023-05-09T05:29:42.806Z,23.10
2023-05-09T05:32:09.479Z,22.25
2023-05-09T05:34:36.101Z,22.73
2023-05-09T05:37:02.525Z,19.45
2023-05-09T05:39:29.018Z,20.02
2023-05-09T05:41:55.818Z,19.30
2023-05-09T05:44:22.296Z,25.52
2023-05-09T05:46:48.811Z,18.77
2023-05-09T05:49:15.442Z,19.85
2023-05-09T05:51:41.947Z,21.52
2023-05-09T05:54:08.457Z,20.57
2023-05-09T05:56:35.090Z,20.10
2023-05-09T05:59:01.664Z,17.13
2023-05-09T06:01:28.091Z,19.13
2023-05-09T06:03:56.005Z,19.45
2023-05-09T06:06:23.235Z,18.23
2023-05-09T06:08:52.588Z,16.30
2023-05-09T06:11:19.413Z,17.95
2023-05-09T06:13:46.002Z,19.73
2023-05-09T06:16:19.659Z,17.95
2023-05-09T06:18:47.388Z,17.20
2023-05-09T06:21:13.850Z,16.42
2023-05-09T06:23:47.202Z,18.05
2023-05-09T06:26:26.733Z,20.33
2023-05-09T06:28:53.165Z,18.13
2023-05-09T06:31:19.633Z,19.53
2023-05-09T06:33:46.201Z,20.38
2023-05-09T06:36:12.716Z,18.52
2023-05-09T06:38:39.182Z,15.73
2023-05-09T06:41:05.672Z,16.77
2023-05-09T06:43:32.235Z,16.30
2023-05-09T06:46:01.500Z,14.73
2023-05-09T06:48:28.010Z,18.40
2023-05-09T06:50:54.463Z,16.30
2023-05-09T06:53:20.959Z,18.83
2023-05-09T06:55:47.685Z,16.63
2023-05-09T06:58:14.786Z,16.83
2023-05-09T07:00:41.323Z,19.48
2023-05-09T07:03:07.870Z,21.40
2023-05-09T07:05:34.678Z,17.83
2023-05-09T07:08:01.300Z,20.03
2023-05-09T07:10:28.149Z,17.33
2023-05-09T07:12:55.939Z,16.83
2023-05-09T07:15:36.800Z,16.40
2023-05-09T07:18:03.720Z,17.20
2023-05-09T07:20:30.166Z,18.57
2023-05-09T07:22:58.318Z,17.75
2023-05-09T07:25:25.060Z,17.80
2023-05-09T07:27:51.606Z,17.05
2023-05-09T07:30:18.092Z,15.98
2023-05-09T07:32:44.629Z,15.57
2023-05-09T07:35:12.440Z,17.77
2023-05-09T07:37:39.176Z,15.65
2023-05-09T07:40:06.363Z,15.73
2023-05-09T07:42:33.310Z,15.63
2023-05-09T07:45:00.351Z,16.67
2023-05-09T07:47:28.707Z,16.75
2023-05-09T07:49:55.471Z,14.45
2023-05-09T07:52:21.971Z,16.30
2023-05-09T07:54:48.687Z,17.67
2023-05-09T07:57:16.092Z,16.00
2023-05-09T07:59:42.562Z,15.27
2023-05-09T08:02:09.070Z,15.25
2023-05-09T08:04:38.272Z,14.95
2023-05-09T08:07:04.969Z,15.65
2023-05-09T08:09:31.512Z,16.97
2023-05-09T08:11:58.434Z,15.18
2023-05-09T08:14:24.996Z,14.05
2023-05-09T08:16:51.594Z,13.52
2023-05-09T08:19:18.005Z,14.68
2023-05-09T08:21:44.381Z,17.10
2023-05-09T08:24:10.882Z,14.63
2023-05-09T08:26:37.366Z,13.93
2023-05-09T08:29:03.851Z,13.48
2023-05-09T08:31:30.564Z,15.40
2023-05-09T08:33:57.107Z,13.13
2023-05-09T08:36:23.532Z,15.13
2023-05-09T08:38:50.353Z,13.10
2023-05-09T08:41:17.220Z,14.05
2023-05-09T08:43:44.494Z,12.82
2023-05-09T08:46:12.093Z,14.13
2023-05-09T08:48:39.688Z,12.55
2023-05-09T08:51:07.009Z,12.18
2023-05-09T08:53:34.551Z,11.20
2023-05-09T08:56:04.045Z,9.27
2023-05-09T08:58:31.581Z,11.47
2023-05-09T09:00:59.198Z,8.60
2023-05-09T09:03:26.311Z,7.03
2023-05-09T09:05:54.728Z,10.13
2023-05-09T09:08:22.500Z,8.07
2023-05-09T09:10:49.074Z,8.37
2023-05-09T09:13:17.534Z,7.70
2023-05-09T09:15:46.325Z,8.57
2023-05-09T09:18:18.067Z,9.43
2023-05-09T09:20:59.723Z,8.38
2023-05-09T09:23:28.481Z,8.03
2023-05-09T09:26:02.178Z,8.25
2023-05-09T09:28:29.011Z,10.23
2023-05-09T09:30:56.995Z,6.88
2023-05-09T09:33:25.970Z,7.55
2023-05-09T09:35:54.389Z,6.87
2023-05-09T09:38:22.026Z,10.23
2023-05-09T09:40:51.603Z,6.85
2023-05-09T09:43:18.325Z,8.57
2023-05-09T09:45:49.126Z,7.95
2023-05-09T09:48:15.787Z,7.33
2023-05-09T09:50:42.453Z,6.13
2023-05-09T09:53:08.987Z,6.50
2023-05-09T09:55:35.899Z,10.82
2023-05-09T09:58:02.467Z,6.68
2023-05-09T10:00:29.935Z,7.40
2023-05-09T10:03:00.536Z,6.70
2023-05-09T10:05:29.071Z,8.55
2023-05-09T10:07:58.440Z,7.03
2023-05-09T10:10:31.257Z,6.50
2023-05-09T10:12:59.998Z,8.10
2023-05-09T10:15:30.098Z,6.22
2023-05-09T10:18:01.258Z,6.85
2023-05-09T10:20:28.675Z,6.95
2023-05-09T10:22:58.144Z,7.97
2023-05-09T10:25:37.941Z,5.90
2023-05-09T10:28:09.962Z,6.32
2023-05-09T10:30:44.281Z,6.20
2023-05-09T10:33:12.749Z,6.40
2023-05-09T10:35:50.164Z,6.57
2023-05-09T10:38:17.102Z,7.00
2023-05-09T10:40:47.996Z,9.00
2023-05-09T10:43:14.554Z,8.15
2023-05-09T10:45:42.194Z,9.48
2023-05-09T10:48:09.467Z,8.10
2023-05-09T10:50:37.632Z,6.57
2023-05-09T10:53:04.236Z,6.40
2023-05-09T10:55:50.823Z,8.63
2023-05-09T10:58:42.141Z,9.68
2023-05-09T11:01:08.802Z,6.05
2023-05-09T11:03:56.315Z,8.17
2023-05-09T11:06:41.807Z,13.00
2023-05-09T11:09:28.564Z,9.88
2023-05-09T11:11:58.126Z,8.90
2023-05-09T11:14:31.729Z,6.78
2023-05-09T11:17:00.036Z,7.03
2023-05-09T11:19:40.119Z,6.65
2023-05-09T11:22:14.077Z,6.55
2023-05-09T11:24:45.498Z,7.15
2023-05-09T11:27:15.744Z,14.85
2023-05-09T11:29:57.022Z,6.87
2023-05-09T11:32:34.292Z,9.52
2023-05-09T11:35:18.579Z,7.72
2023-05-09T11:38:11.276Z,9.18
2023-05-09T11:40:39.638Z,10.70
2023-05-09T11:43:07.655Z,7.50
2023-05-09T11:45:34.225Z,8.50
2023-05-09T11:48:01.255Z,6.78
2023-05-09T11:50:28.471Z,8.05
2023-05-09T11:52:55.047Z,8.40
2023-05-09T11:55:22.936Z,8.83
2023-05-09T11:57:51.944Z,7.97
2023-05-09T12:00:19.699Z,8.57
2023-05-09T12:02:47.178Z,9.98
2023-05-09T12:05:16.501Z,9.43
2023-05-09T12:07:44.624Z,9.20
2023-05-09T12:10:20.637Z,7.95
2023-05-09T12:12:52.084Z,11.30
2023-05-09T12:15:19.765Z,11.45
2023-05-09T12:17:51.257Z,8.38
2023-05-09T12:20:18.560Z,7.67
2023-05-09T12:22:53.228Z,8.30
2023-05-09T12:25:19.865Z,8.70
2023-05-09T12:27:46.403Z,12.90
2023-05-09T12:30:16.124Z,10.52
2023-05-09T12:32:43.804Z,8.70
2023-05-09T12:35:11.222Z,7.57
2023-05-09T12:37:38.006Z,8.23
2023-05-09T12:40:13.069Z,8.32
2023-05-09T12:42:39.968Z,8.43
2023-05-09T12:45:08.732Z,10.60
2023-05-09T12:47:35.644Z,8.68
2023-05-09T12:50:03.569Z,7.50
2023-05-09T12:52:46.973Z,9.30
2023-05-09T12:55:21.121Z,7.60
2023-05-09T12:57:59.083Z,6.50
2023-05-09T13:00:26.281Z,6.32
2023-05-09T13:02:53.207Z,7.57
2023-05-09T13:05:21.519Z,6.25
2023-05-09T13:07:50.511Z,8.63
2023-05-09T13:10:21.285Z,5.97
2023-05-09T13:12:49.198Z,7.28
2023-05-09T13:15:17.672Z,6.90
2023-05-09T13:17:44.505Z,5.88
2023-05-09T13:20:11.104Z,6.05
2023-05-09T13:22:37.723Z,6.17
2023-05-09T13:25:05.099Z,7.18
2023-05-09T13:27:32.618Z,6.88
2023-05-09T13:29:59.462Z,6.18
2023-05-09T13:32:26.338Z,5.88
2023-05-09T13:34:53.378Z,5.83
2023-05-09T13:37:19.934Z,14.50
2023-05-09T13:39:46.805Z,9.20
2023-05-09T13:42:13.282Z,6.50
2023-05-09T13:44:39.750Z,10.15
2023-05-09T13:47:07.810Z,6.03
2023-05-09T13:49:34.914Z,6.03
2023-05-09T13:52:01.599Z,6.65
2023-05-09T13:54:29.712Z,8.40
2023-05-09T13:56:56.223Z,5.50
2023-05-09T13:59:22.713Z,4.73
2023-05-09T14:01:49.326Z,5.70
2023-05-09T14:04:15.908Z,5.72
2023-05-09T14:06:48.085Z,5.80
2023-05-09T14:09:15.415Z,5.75
2023-05-09T14:11:42.775Z,6.47
2023-05-09T14:14:09.462Z,5.88
2023-05-09T14:16:36.022Z,5.88
2023-05-09T14:19:02.592Z,5.57
2023-05-09T14:21:29.208Z,6.03
2023-05-09T14:23:55.861Z,7.07
2023-05-09T14:26:22.397Z,6.60
2023-05-09T14:28:49.216Z,6.82
2023-05-09T14:31:16.140Z,6.20
2023-05-09T14:33:42.660Z,4.45
2023-05-09T14:36:09.204Z,5.23
2023-05-09T14:38:36.878Z,4.60
2023-05-09T14:41:03.687Z,4.13
2023-05-09T14:43:30.529Z,4.93
2023-05-09T14:45:57.348Z,5.70
2023-05-09T14:48:23.831Z,4.67
2023-05-09T14:50:53.512Z,4.80
2023-05-09T14:53:20.022Z,4.25
2023-05-09T14:55:46.565Z,4.68
2023-05-09T14:58:13.890Z,3.45
2023-05-09T15:00:40.386Z,4.07
2023-05-09T15:03:06.982Z,4.90
2023-05-09T15:05:33.902Z,4.50
2023-05-09T15:08:00.501Z,5.38
2023-05-09T15:10:27.747Z,4.20
2023-05-09T15:12:55.094Z,4.97
2023-05-09T15:15:24.081Z,4.40
2023-05-09T15:17:51.607Z,5.30
2023-05-09T15:20:18.412Z,4.65
2023-05-09T15:22:46.514Z,6.25
2023-05-09T15:25:13.069Z,3.87
2023-05-09T15:27:40.142Z,5.82
2023-05-09T15:30:08.062Z,6.78
2023-05-09T15:32:35.934Z,4.32
2023-05-09T15:35:02.425Z,5.20
2023-05-09T15:37:29.159Z,4.30
2023-05-09T15:39:56.851Z,3.42
2023-05-09T15:42:23.462Z,4.13
2023-05-09T15:44:49.957Z,4.28
2023-05-09T15:47:16.493Z,4.78
2023-05-09T15:49:43.082Z,4.97
2023-05-09T15:52:10.747Z,5.78
2023-05-09T15:54:37.702Z,4.80
2023-05-09T15:57:05.371Z,4.22
2023-05-09T15:59:31.843Z,3.80
2023-05-09T16:01:58.546Z,3.63
2023-05-09T16:04:25.041Z,3.55
2023-05-09T16:06:52.098Z,5.63
2023-05-09T16:09:19.457Z,3.28
2023-05-09T16:11:46.323Z,3.38
2023-05-09T16:14:13.061Z,2.80
2023-05-09T16:16:40.694Z,2.80
2023-05-09T16:19:07.330Z,3.70
2023-05-09T16:21:34.267Z,3.25
2023-05-09T16:24:04.745Z,3.03
2023-05-09T16:26:32.652Z,3.53
2023-05-09T16:28:59.465Z,3.55
2023-05-09T16:31:26.660Z,5.35
2023-05-09T16:33:54.233Z,4.20
2023-05-09T16:36:22.024Z,3.00
2023-05-09T16:38:48.814Z,2.73
2023-05-09T16:41:16.017Z,5.10
2023-05-09T16:43:42.790Z,4.68
2023-05-09T16:46:10.370Z,3.00
2023-05-09T16:48:36.857Z,4.55
2023-05-09T16:51:03.375Z,2.80
2023-05-09T16:53:29.861Z,3.40
2023-05-09T16:55:56.922Z,4.35
2023-05-09T16:58:23.864Z,3.55
2023-05-09T17:00:50.990Z,3.88
2023-05-09T17:03:17.582Z,5.60
2023-05-09T17:05:44.095Z,2.28
2023-05-09T17:08:10.593Z,2.67
2023-05-09T17:10:38.088Z,2.28
2023-05-09T17:13:08.751Z,5.45
2023-05-09T17:15:35.616Z,2.40
2023-05-09T17:18:03.068Z,4.90
2023-05-09T17:20:30.105Z,2.00
2023-05-09T17:22:57.300Z,3.17
2023-05-09T17:25:23.861Z,3.85
2023-05-09T17:27:50.416Z,2.83
2023-05-09T17:30:17.947Z,2.90
2023-05-09T17:32:46.121Z,3.28
2023-05-09T17:35:13.712Z,4.05
2023-05-09T17:37:40.180Z,3.80
2023-05-09T17:40:07.944Z,3.03
2023-05-09T17:42:34.483Z,3.92
2023-05-09T17:45:01.124Z,4.68
2023-05-09T17:47:28.938Z,4.22
2023-05-09T17:49:55.673Z,3.10
2023-05-09T17:52:22.180Z,4.47
2023-05-09T17:54:49.290Z,5.93
2023-05-09T17:57:16.004Z,3.85
2023-05-09T17:59:42.667Z,4.95
2023-05-09T18:02:09.238Z,4.43
2023-05-09T18:04:36.132Z,4.57
2023-05-09T18:07:02.822Z,6.03
2023-05-09T18:09:29.561Z,8.35
2023-05-09T18:11:56.115Z,7.18
2023-05-09T18:14:22.647Z,5.80
2023-05-09T18:16:49.273Z,5.43
2023-05-09T18:19:16.029Z,5.45
2023-05-09T18:21:42.648Z,6.00
2023-05-09T18:24:10.745Z,5.53
2023-05-09T18:26:37.385Z,7.05
2023-05-09T18:29:03.951Z,5.43
2023-05-09T18:31:31.573Z,5.75
2023-05-09T18:33:58.273Z,5.78
2023-05-09T18:36:24.828Z,7.35
2023-05-09T18:38:51.881Z,7.05
2023-05-09T18:41:18.604Z,6.83
2023-05-09T18:43:48.020Z,7.15
2023-05-09T18:46:20.968Z,6.63
2023-05-09T18:48:52.018Z,5.00
2023-05-09T18:51:20.093Z,5.93
2023-05-09T18:53:47.427Z,7.77
2023-05-09T18:56:14.387Z,6.65
2023-05-09T18:58:41.478Z,5.45
2023-05-09T19:01:11.801Z,7.65
2023-05-09T19:03:46.015Z,6.80
2023-05-09T19:06:14.104Z,9.70
2023-05-09T19:08:42.494Z,5.50
2023-05-09T19:11:10.009Z,8.52
2023-05-09T19:13:38.403Z,6.00
2023-05-09T19:16:07.046Z,6.88
2023-05-09T19:18:34.037Z,7.03
2023-05-09T19:21:01.715Z,8.32
2023-05-09T19:23:28.325Z,6.18
2023-05-09T19:25:55.299Z,6.85
2023-05-09T19:28:22.961Z,6.65
2023-05-09T19:30:50.370Z,8.10
2023-05-09T19:33:24.451Z,9.80
2023-05-09T19:35:51.210Z,6.80
2023-05-09T19:38:21.098Z,8.07
2023-05-09T19:40:51.113Z,8.02
2023-05-09T19:43:17.830Z,8.27
2023-05-09T19:45:45.659Z,5.65
2023-05-09T19:48:15.339Z,6.93
2023-05-09T19:50:42.973Z,6.88
2023-05-09T19:53:09.642Z,7.13
2023-05-09T19:55:36.502Z,6.03
2023-05-09T19:58:03.285Z,4.78
2023-05-09T20:00:29.912Z,4.32
2023-05-09T20:02:56.547Z,4.95
2023-05-09T20:08:06.570Z,6.30
2023-05-09T20:10:35.511Z,3.63
2023-05-09T20:13:07.368Z,4.55
2023-05-09T20:15:35.452Z,5.13
2023-05-09T20:21:13.080Z,3.83
2023-05-09T20:24:20.490Z,4.25
2023-05-09T20:26:47.130Z,6.60
2023-05-09T20:29:15.972Z,4.63
2023-05-09T20:31:55.440Z,4.60
2023-05-09T20:34:22.935Z,5.80
2023-05-09T20:36:53.354Z,4.45
2023-05-09T20:39:20.785Z,5.38
2023-05-09T20:41:48.664Z,4.80
2023-05-09T20:44:15.811Z,5.32
2023-05-09T20:46:42.454Z,4.40
2023-05-09T20:49:09.554Z,4.50
2023-05-09T20:51:36.116Z,8.52
2023-05-09T20:54:02.973Z,5.82
2023-05-09T20:56:29.515Z,4.57
2023-05-09T20:58:56.516Z,6.53
2023-05-09T21:01:23.071Z,4.35
2023-05-09T21:03:49.590Z,5.28
2023-05-09T21:06:16.049Z,5.90
2023-05-09T21:08:43.331Z,5.55
2023-05-09T21:11:10.132Z,5.83
2023-05-09T21:13:37.301Z,8.13
2023-05-09T21:16:03.963Z,8.10
2023-05-09T21:18:30.376Z,5.32
2023-05-09T21:20:57.006Z,8.25
2023-05-09T21:23:23.511Z,8.30
2023-05-09T21:25:49.945Z,7.10
2023-05-09T21:28:17.367Z,8.80
2023-05-09T21:30:43.918Z,6.90
2023-05-09T21:33:11.271Z,6.47
2023-05-09T21:35:37.801Z,8.13
2023-05-09T21:38:04.287Z,11.55
2023-05-09T21:40:30.833Z,7.95
2023-05-09T21:42:57.326Z,7.93
2023-05-09T21:45:23.734Z,11.13
2023-05-09T21:47:50.382Z,8.70
2023-05-09T21:50:17.104Z,7.78
2023-05-09T21:52:43.829Z,10.27
2023-05-09T21:55:10.329Z,9.10
2023-05-09T21:57:36.861Z,11.07
2023-05-09T22:00:05.613Z,10.83
2023-05-09T22:02:32.694Z,9.52
2023-05-09T22:04:59.334Z,10.75
2023-05-09T22:07:26.140Z,9.35
2023-05-09T22:09:52.997Z,12.07
2023-05-09T22:12:19.964Z,12.63
2023-05-09T22:14:55.743Z,10.73
2023-05-09T22:17:24.057Z,14.10
2023-05-09T22:19:50.580Z,14.52
2023-05-09T22:22:17.050Z,15.13
2023-05-09T22:24:43.782Z,12.70
2023-05-09T22:27:11.036Z,10.60
2023-05-09T22:29:37.550Z,12.85
2023-05-09T22:32:04.564Z,12.02
2023-05-09T22:34:31.295Z,13.38
2023-05-09T22:36:57.818Z,12.83
2023-05-09T22:39:24.418Z,12.70
2023-05-09T22:41:50.924Z,13.25
2023-05-09T22:44:17.414Z,13.45
2023-05-09T22:46:43.913Z,13.90
2023-05-09T22:49:10.688Z,16.83
2023-05-09T22:51:38.755Z,13.70
2023-05-09T22:54:05.602Z,14.77
2023-05-09T22:56:32.203Z,14.32
2023-05-09T22:58:58.899Z,17.35
2023-05-09T23:01:27.327Z,13.70
2023-05-09T23:03:53.918Z,14.55
2023-05-09T23:06:20.440Z,16.20
2023-05-09T23:08:47.131Z,14.73
2023-05-09T23:11:13.695Z,16.38
2023-05-09T23:13:40.263Z,15.87
2023-05-09T23:16:06.950Z,12.90
2023-05-09T23:18:33.482Z,14.65
2023-05-09T23:21:00.027Z,18.02
2023-05-09T23:23:26.532Z,16.98
2023-05-09T23:25:53.697Z,16.13
2023-05-09T23:28:27.155Z,17.25
2023-05-09T23:30:54.490Z,13.43
2023-05-09T23:33:21.888Z,15.70
2023-05-09T23:35:48.441Z,17.40
2023-05-09T23:38:14.966Z,14.57
2023-05-09T23:40:48.278Z,17.25
2023-05-09T23:43:15.150Z,13.90
2023-05-09T23:45:41.932Z,17.83
2023-05-09T23:48:08.484Z,14.23
2023-05-09T23:50:35.307Z,13.30
2023-05-09T23:53:04.785Z,13.75
2023-05-09T23:55:32.711Z,18.27
2023-05-09T23:58:00.606Z,20.02
